Time;durP1;ratioP1;P1;durP2;ratioP2;P2;SDS_P1;SDS_P2;PMS_P1;PMS_P2;Temp;Humidity;BMP_temperature;BMP_pressure;BME280_temperature;BME280_humidity;BME280_pressure;Samples;Min_cycle;Max_cycle;Signal;HPM_P1;HPM_P2
2024/02/01 00:01:56;;;;;;;30.48;17.23;;;;;;;;;;4965182;28;25133;-68
2024/02/01 00:04:22;;;;;;;26.05;15.90;;;;;;;;;;4945457;28;25141;-68
2024/02/01 00:06:51;;;;;;;39.20;17.08;;;;;;;;;;4945739;28;25107;-69
2024/02/01 00:09:17;;;;;;;35.88;17.33;;;;;;;;;;4967152;28;25070;-68
2024/02/01 00:11:43;;;;;;;32.33;17.60;;;;;;;;;;4967982;28;25093;-68
2024/02/01 00:14:09;;;;;;;33.08;17.30;;;;;;;;;;4968164;28;25077;-68
2024/02/01 00:16:35;;;;;;;36.17;18.98;;;;;;;;;;4970932;28;25146;-69
2024/02/01 00:19:01;;;;;;;39.08;19.10;;;;;;;;;;4967469;28;25141;-69
2024/02/01 00:21:27;;;;;;;35.83;19.13;;;;;;;;;;4972732;28;25070;-67
2024/02/01 00:23:53;;;;;;;36.72;17.08;;;;;;;;;;4969326;28;25062;-70
2024/02/01 00:26:20;;;;;;;32.63;17.75;;;;;;;;;;4967319;28;25170;-67
2024/02/01 00:28:46;;;;;;;33.97;17.95;;;;;;;;;;4969012;28;25069;-68
2024/02/01 00:31:12;;;;;;;39.30;18.52;;;;;;;;;;4971096;28;25056;-69
2024/02/01 00:33:39;;;;;;;45.08;19.02;;;;;;;;;;4969508;28;25053;-68
2024/02/01 00:36:05;;;;;;;31.23;17.05;;;;;;;;;;4971281;28;25058;-67
2024/02/01 00:38:31;;;;;;;38.53;15.70;;;;;;;;;;4969839;28;25148;-68
2024/02/01 00:40:57;;;;;;;43.45;17.02;;;;;;;;;;4967663;28;25075;-67
2024/02/01 00:43:23;;;;;;;42.20;17.27;;;;;;;;;;4972191;28;25136;-69
2024/02/01 00:45:49;;;;;;;42.22;16.52;;;;;;;;;;4970118;28;25079;-69
2024/02/01 00:48:16;;;;;;;35.28;17.17;;;;;;;;;;4970292;28;25072;-68
2024/02/01 00:50:42;;;;;;;39.08;17.35;;;;;;;;;;4971676;28;25147;-68
2024/02/01 00:53:08;;;;;;;44.42;15.77;;;;;;;;;;4969127;28;25098;-69
2024/02/01 00:55:34;;;;;;;40.00;14.63;;;;;;;;;;4967742;28;25058;-68
2024/02/01 00:58:00;;;;;;;47.97;15.23;;;;;;;;;;4967359;28;25122;-67
2024/02/01 01:00:26;;;;;;;49.33;16.20;;;;;;;;;;4973852;28;25061;-68
2024/02/01 01:02:52;;;;;;;46.42;15.57;;;;;;;;;;4966598;28;25072;-66
2024/02/01 01:05:18;;;;;;;47.78;17.35;;;;;;;;;;4966647;28;25057;-70
2024/02/01 01:07:43;;;;;;;48.10;16.05;;;;;;;;;;4967299;28;25151;-69
2024/02/01 01:10:10;;;;;;;46.58;16.25;;;;;;;;;;4967686;28;25057;-68
2024/02/01 01:12:35;;;;;;;54.72;17.33;;;;;;;;;;4966545;28;25065;-68
2024/02/01 01:15:01;;;;;;;53.17;20.25;;;;;;;;;;4967257;28;25133;-68
2024/02/01 01:17:27;;;;;;;51.95;18.77;;;;;;;;;;4967076;28;25051;-69
2024/02/01 01:19:55;;;;;;;53.60;17.58;;;;;;;;;;4967159;28;25064;-68
2024/02/01 01:22:20;;;;;;;38.80;16.45;;;;;;;;;;4962969;28;25078;-67
2024/02/01 01:24:46;;;;;;;47.65;17.15;;;;;;;;;;4947737;28;25103;-70
2024/02/01 01:27:12;;;;;;;44.08;19.38;;;;;;;;;;4967135;28;25081;-67
2024/02/01 01:29:38;;;;;;;46.35;17.08;;;;;;;;;;4972605;28;25065;-68
2024/02/01 01:32:04;;;;;;;47.22;17.75;;;;;;;;;;4965924;28;25064;-68
2024/02/01 01:34:30;;;;;;;52.75;17.98;;;;;;;;;;4966749;28;25098;-68
2024/02/01 01:36:56;;;;;;;55.75;19.45;;;;;;;;;;4967361;28;25069;-67
2024/02/01 01:39:22;;;;;;;59.40;17.08;;;;;;;;;;4967688;28;25075;-69
2024/02/01 01:41:48;;;;;;;60.50;20.52;;;;;;;;;;4966726;28;25060;-69
2024/02/01 01:44:14;;;;;;;58.75;17.35;;;;;;;;;;4970664;28;25071;-68
2024/02/01 01:46:40;;;;;;;54.38;17.23;;;;;;;;;;4968663;28;25116;-67
2024/02/01 01:49:07;;;;;;;49.72;16.90;;;;;;;;;;4971292;28;25076;-67
2024/02/01 01:51:34;;;;;;;55.58;16.90;;;;;;;;;;4975894;28;25080;-67
2024/02/01 01:54:00;;;;;;;58.17;18.75;;;;;;;;;;4978594;28;25068;-68
2024/02/01 01:56:26;;;;;;;64.70;17.85;;;;;;;;;;4980702;28;25063;-68
2024/02/01 01:58:52;;;;;;;54.75;17.38;;;;;;;;;;4980764;28;25080;-67
2024/02/01 02:01:19;;;;;;;60.67;17.88;;;;;;;;;;4981130;28;25076;-69
2024/02/01 02:03:47;;;;;;;65.38;16.90;;;;;;;;;;4978398;28;25071;-67
2024/02/01 02:06:13;;;;;;;51.85;15.50;;;;;;;;;;4973307;28;25073;-67
2024/02/01 02:08:39;;;;;;;55.92;17.20;;;;;;;;;;4946114;28;25066;-66
2024/02/01 02:11:05;;;;;;;45.75;14.68;;;;;;;;;;4964787;28;25057;-68
2024/02/01 02:13:31;;;;;;;48.03;15.10;;;;;;;;;;4966490;28;25232;-68
2024/02/01 02:15:57;;;;;;;48.72;14.15;;;;;;;;;;4964472;28;25066;-68
2024/02/01 02:18:23;;;;;;;46.83;13.88;;;;;;;;;;4965866;28;24867;-69
2024/02/01 02:20:51;;;;;;;41.72;14.68;;;;;;;;;;4988557;28;25057;-68
2024/02/01 02:23:17;;;;;;;45.75;13.77;;;;;;;;;;4967734;28;25061;-67
2024/02/01 02:25:43;;;;;;;37.05;11.30;;;;;;;;;;4966229;28;25089;-68
2024/02/01 02:28:09;;;;;;;45.42;13.45;;;;;;;;;;4966417;28;25116;-68
2024/02/01 02:30:38;;;;;;;54.83;14.02;;;;;;;;;;4967775;28;25069;-69
2024/02/01 02:33:04;;;;;;;53.25;13.98;;;;;;;;;;4969346;28;25082;-68
2024/02/01 02:35:30;;;;;;;46.38;13.27;;;;;;;;;;4964113;28;25060;-67
2024/02/01 02:37:56;;;;;;;46.25;13.73;;;;;;;;;;4968830;28;25079;-66
2024/02/01 02:40:22;;;;;;;49.50;12.15;;;;;;;;;;4971263;28;25060;-66
2024/02/01 02:42:49;;;;;;;38.20;12.75;;;;;;;;;;4971655;28;25135;-68
2024/02/01 02:45:15;;;;;;;39.42;13.07;;;;;;;;;;4966060;28;25060;-68
2024/02/01 02:47:41;;;;;;;35.85;12.95;;;;;;;;;;4974095;28;25156;-66
2024/02/01 02:50:08;;;;;;;48.88;12.52;;;;;;;;;;4968729;28;25051;-66
2024/02/01 02:52:35;;;;;;;37.83;13.90;;;;;;;;;;4972404;28;25166;-67
2024/02/01 02:55:01;;;;;;;41.20;12.35;;;;;;;;;;4968315;28;25061;-66
2024/02/01 02:57:27;;;;;;;44.63;12.15;;;;;;;;;;4968271;28;25076;-66
2024/02/01 02:59:53;;;;;;;46.58;12.98;;;;;;;;;;4966272;28;25072;-67
2024/02/01 03:02:19;;;;;;;38.15;11.70;;;;;;;;;;4967864;28;25044;-67
2024/02/01 03:04:44;;;;;;;27.75;11.45;;;;;;;;;;4967693;28;25107;-67
2024/02/01 03:07:10;;;;;;;34.78;11.43;;;;;;;;;;4975608;28;25082;-68
2024/02/01 03:09:36;;;;;;;34.33;9.40;;;;;;;;;;4967857;28;25077;-67
2024/02/01 03:12:12;;;;;;;32.10;9.00;;;;;;;;;;4979865;28;25050;-67
2024/02/01 03:14:39;;;;;;;33.45;9.05;;;;;;;;;;4970492;28;25108;-65
2024/02/01 03:17:05;;;;;;;27.80;8.25;;;;;;;;;;4959739;28;25068;-66
2024/02/01 03:19:34;;;;;;;34.80;9.02;;;;;;;;;;4946801;28;25092;-66
2024/02/01 03:22:00;;;;;;;36.03;8.10;;;;;;;;;;4947230;28;25140;-65
2024/02/01 03:24:28;;;;;;;27.98;7.28;;;;;;;;;;4948772;28;25126;-67
2024/02/01 03:26:54;;;;;;;30.60;7.65;;;;;;;;;;4961792;28;25127;-66
2024/02/01 03:29:21;;;;;;;24.70;7.65;;;;;;;;;;4962702;28;25061;-65
2024/02/01 03:31:47;;;;;;;28.40;7.32;;;;;;;;;;4968563;28;25067;-66
2024/02/01 03:34:20;;;;;;;28.23;7.68;;;;;;;;;;4969754;28;25132;-64
2024/02/01 03:36:46;;;;;;;35.25;6.32;;;;;;;;;;4967404;28;25086;-63
2024/02/01 03:39:24;;;;;;;27.35;5.68;;;;;;;;;;4970240;28;25073;-67
2024/02/01 03:41:51;;;;;;;33.53;7.90;;;;;;;;;;4960607;28;25136;-65
2024/02/01 03:44:17;;;;;;;34.05;8.02;;;;;;;;;;4964739;28;25073;-67
2024/02/01 03:46:43;;;;;;;26.90;6.90;;;;;;;;;;4965720;28;25086;-65
2024/02/01 03:49:10;;;;;;;39.47;6.55;;;;;;;;;;4965352;28;25098;-66
2024/02/01 03:51:36;;;;;;;44.70;6.82;;;;;;;;;;4984439;28;25066;-66
2024/02/01 03:54:11;;;;;;;56.38;7.47;;;;;;;;;;4967037;28;25060;-66
2024/02/01 03:56:37;;;;;;;30.50;5.60;;;;;;;;;;4965914;28;25070;-65
2024/02/01 03:59:04;;;;;;;38.72;6.15;;;;;;;;;;4964187;28;25049;-66
2024/02/01 04:01:30;;;;;;;35.13;7.70;;;;;;;;;;4964462;28;25161;-66
2024/02/01 04:03:58;;;;;;;33.97;7.15;;;;;;;;;;4965468;28;25099;-65
2024/02/01 04:06:25;;;;;;;49.75;7.70;;;;;;;;;;4965028;28;25081;-65
2024/02/01 04:08:51;;;;;;;39.55;7.32;;;;;;;;;;4962961;28;25127;-65
2024/02/01 04:11:17;;;;;;;35.17;7.22;;;;;;;;;;4981940;28;25087;-66
2024/02/01 04:13:43;;;;;;;40.38;6.75;;;;;;;;;;4986912;28;25115;-67
2024/02/01 04:16:09;;;;;;;43.50;7.78;;;;;;;;;;4974330;28;25132;-66
2024/02/01 04:18:35;;;;;;;41.60;6.53;;;;;;;;;;4972182;28;25065;-65
2024/02/01 04:21:01;;;;;;;38.25;6.60;;;;;;;;;;4966201;28;25057;-66
2024/02/01 04:23:29;;;;;;;40.45;6.03;;;;;;;;;;4966844;28;25098;-66
2024/02/01 04:25:55;;;;;;;33.13;5.60;;;;;;;;;;4965259;28;25065;-66
2024/02/01 04:28:21;;;;;;;34.85;6.47;;;;;;;;;;4962751;28;25073;-66
2024/02/01 04:30:50;;;;;;;30.83;4.57;;;;;;;;;;4964476;28;25054;-67
2024/02/01 04:33:23;;;;;;;36.47;6.32;;;;;;;;;;4967665;28;25072;-66
2024/02/01 04:35:49;;;;;;;29.05;5.40;;;;;;;;;;4965394;28;25051;-66
2024/02/01 04:38:16;;;;;;;32.63;6.63;;;;;;;;;;4965614;28;25077;-66
2024/02/01 04:40:45;;;;;;;28.85;5.43;;;;;;;;;;4964855;28;25058;-66
2024/02/01 04:43:14;;;;;;;38.33;5.78;;;;;;;;;;4966446;28;25141;-65
2024/02/01 04:45:40;;;;;;;40.95;5.30;;;;;;;;;;4964032;28;25083;-66
2024/02/01 04:48:11;;;;;;;28.48;5.88;;;;;;;;;;4965498;28;25159;-66
2024/02/01 04:50:37;;;;;;;28.27;5.38;;;;;;;;;;4967968;28;25088;-66
2024/02/01 04:53:04;;;;;;;35.70;5.75;;;;;;;;;;4962692;28;25064;-66
2024/02/01 04:55:30;;;;;;;43.58;5.40;;;;;;;;;;4962143;28;25075;-65
2024/02/01 04:57:56;;;;;;;22.27;4.57;;;;;;;;;;4967992;28;25080;-66
2024/02/01 05:00:22;;;;;;;30.05;5.63;;;;;;;;;;4963172;28;25069;-66
2024/02/01 05:02:48;;;;;;;30.58;5.00;;;;;;;;;;4969287;28;25033;-66
2024/02/01 05:05:15;;;;;;;27.35;5.03;;;;;;;;;;4966340;28;25069;-66
2024/02/01 05:07:41;;;;;;;29.95;5.90;;;;;;;;;;4968946;28;25095;-65
2024/02/01 05:10:08;;;;;;;28.30;4.93;;;;;;;;;;4968766;28;25073;-66
2024/02/01 05:12:35;;;;;;;30.27;4.78;;;;;;;;;;4965419;28;25099;-66
2024/02/01 05:15:02;;;;;;;35.63;5.40;;;;;;;;;;4964938;28;25072;-65
2024/02/01 05:17:28;;;;;;;26.65;4.65;;;;;;;;;;4963881;28;25493;-66
2024/02/01 05:19:54;;;;;;;33.50;5.93;;;;;;;;;;4947480;28;25069;-66
2024/02/01 05:22:20;;;;;;;36.75;5.18;;;;;;;;;;4943604;28;25065;-66
2024/02/01 05:24:46;;;;;;;25.58;4.63;;;;;;;;;;4960065;28;25181;-66
2024/02/01 05:27:12;;;;;;;27.35;5.18;;;;;;;;;;4967657;28;25124;-65
2024/02/01 05:29:39;;;;;;;37.92;6.03;;;;;;;;;;4967123;28;25070;-66
2024/02/01 05:32:06;;;;;;;31.63;5.38;;;;;;;;;;4969599;28;25058;-65
2024/02/01 05:34:35;;;;;;;31.08;4.82;;;;;;;;;;4971273;28;25081;-66
2024/02/01 05:37:01;;;;;;;30.55;5.18;;;;;;;;;;4983386;28;25144;-66
2024/02/01 05:39:28;;;;;;;34.97;4.78;;;;;;;;;;4968801;28;25086;-67
2024/02/01 05:41:57;;;;;;;29.65;5.38;;;;;;;;;;4976439;28;25053;-66
2024/02/01 05:44:24;;;;;;;32.88;5.22;;;;;;;;;;4962788;28;25080;-66
2024/02/01 05:46:54;;;;;;;23.63;5.68;;;;;;;;;;4948635;28;25070;-66
2024/02/01 05:49:29;;;;;;;26.30;5.75;;;;;;;;;;4953526;28;25339;-67
2024/02/01 05:51:59;;;;;;;25.70;4.60;;;;;;;;;;4971782;28;25059;-66
2024/02/01 05:54:25;;;;;;;34.45;5.55;;;;;;;;;;4969366;28;25139;-66
2024/02/01 05:56:51;;;;;;;33.08;6.18;;;;;;;;;;4972991;28;25093;-65
2024/02/01 05:59:20;;;;;;;35.28;6.55;;;;;;;;;;4977314;28;25072;-66
2024/02/01 06:01:46;;;;;;;26.08;5.35;;;;;;;;;;4974078;28;25052;-66
2024/02/01 06:04:12;;;;;;;34.45;5.70;;;;;;;;;;4977188;28;25069;-66
2024/02/01 06:06:41;;;;;;;36.85;5.80;;;;;;;;;;4977203;28;25087;-65
2024/02/01 06:09:13;;;;;;;30.40;5.32;;;;;;;;;;4984214;28;25061;-65
2024/02/01 06:11:39;;;;;;;31.15;5.63;;;;;;;;;;4971205;28;25099;-66
2024/02/01 06:14:05;;;;;;;26.83;4.97;;;;;;;;;;4978973;28;25058;-65
2024/02/01 06:16:32;;;;;;;34.85;5.57;;;;;;;;;;4982795;28;25078;-65
2024/02/01 06:18:59;;;;;;;28.73;5.45;;;;;;;;;;4976488;28;25074;-65
2024/02/01 06:21:25;;;;;;;35.05;5.88;;;;;;;;;;4987276;28;25100;-65
2024/02/01 06:23:51;;;;;;;37.85;5.65;;;;;;;;;;4966994;28;25072;-65
2024/02/01 06:26:27;;;;;;;33.03;6.25;;;;;;;;;;4966419;28;25052;-66
2024/02/01 06:28:54;;;;;;;37.30;6.65;;;;;;;;;;4950222;28;25078;-66
2024/02/01 06:31:20;;;;;;;28.02;6.05;;;;;;;;;;4961808;28;25066;-67
2024/02/01 06:33:50;;;;;;;34.83;5.80;;;;;;;;;;4973820;28;25052;-66
2024/02/01 06:36:16;;;;;;;40.08;6.60;;;;;;;;;;4987867;28;25047;-67
2024/02/01 06:39:08;;;;;;;27.60;5.75;;;;;;;;;;4993214;28;25074;-66
2024/02/01 06:41:47;;;;;;;35.00;7.50;;;;;;;;;;4990190;28;25047;-66
2024/02/01 06:44:24;;;;;;;33.78;5.60;;;;;;;;;;4968611;28;25159;-66
2024/02/01 06:49:29;;;;;;;;;;;;;;;;;;4969395;28;25110;-66
2024/02/01 06:52:02;;;;;;;33.20;6.88;;;;;;;;;;4971081;28;24075;-66
2024/02/01 06:54:39;;;;;;;44.15;7.28;;;;;;;;;;4978167;28;25170;-65
2024/02/01 06:57:13;;;;;;;29.23;6.72;;;;;;;;;;4967283;28;25077;-66
2024/02/01 07:02:35;;;;;;;33.83;6.82;;;;;;;;;;4970692;28;25065;-67
2024/02/01 07:05:21;;;;;;;30.05;6.25;;;;;;;;;;4966494;28;25131;-66
2024/02/01 07:07:50;;;;;;;25.48;6.60;;;;;;;;;;4968626;28;25073;-65
2024/02/01 07:10:21;;;;;;;26.35;5.70;;;;;;;;;;4973168;28;25079;-65
2024/02/01 07:13:06;;;;;;;34.33;5.97;;;;;;;;;;4962859;28;25086;-66
2024/02/01 07:15:32;;;;;;;40.30;6.65;;;;;;;;;;4974280;28;25145;-67
2024/02/01 07:18:14;;;;;;;45.50;8.63;;;;;;;;;;4971584;28;25101;-66
2024/02/01 07:20:50;;;;;;;29.50;6.22;;;;;;;;;;4973897;28;25062;-66
2024/02/01 07:25:48;;;;;;;36.38;8.82;;;;;;;;;;4979008;28;25077;-66
2024/02/01 07:58:29;;;;;;;38.63;6.65;;;;;;;;;;4970997;28;25065;-67
2024/02/01 08:00:57;;;;;;;41.55;6.85;;;;;;;;;;4967225;28;25059;-66
2024/02/01 08:08:37;;;;;;;33.83;7.18;;;;;;;;;;4967438;28;25120;-67
2024/02/01 08:11:04;;;;;;;31.88;6.40;;;;;;;;;;4962260;28;25075;-67
2024/02/01 08:13:30;;;;;;;35.60;6.10;;;;;;;;;;4965943;28;25059;-67
2024/02/01 08:15:56;;;;;;;41.03;5.72;;;;;;;;;;4965575;28;25055;-67
2024/02/01 08:18:23;;;;;;;29.08;5.72;;;;;;;;;;4967947;28;25216;-67
2024/02/01 08:20:49;;;;;;;23.23;5.60;;;;;;;;;;4959730;28;25151;-67
2024/02/01 08:23:23;;;;;;;33.28;6.72;;;;;;;;;;4971324;28;25074;-68
2024/02/01 08:25:50;;;;;;;28.58;6.00;;;;;;;;;;4969363;28;25112;-66
2024/02/01 08:28:16;;;;;;;30.73;7.13;;;;;;;;;;4969961;28;25122;-67
2024/02/01 08:30:44;;;;;;;29.70;5.97;;;;;;;;;;4971566;28;25144;-68
2024/02/01 08:33:19;;;;;;;33.80;7.30;;;;;;;;;;4968309;28;25050;-67
2024/02/01 08:35:46;;;;;;;35.10;5.93;;;;;;;;;;4970485;28;25047;-67
2024/02/01 08:38:12;;;;;;;35.25;6.55;;;;;;;;;;4972203;28;25078;-66
2024/02/01 08:40:41;;;;;;;29.30;6.97;;;;;;;;;;4977895;28;25043;-68
2024/02/01 08:43:11;;;;;;;35.83;6.82;;;;;;;;;;4971152;28;25086;-67
2024/02/01 08:45:39;;;;;;;29.52;6.70;;;;;;;;;;4972200;28;25097;-67
2024/02/01 08:48:06;;;;;;;35.92;6.57;;;;;;;;;;4969267;28;25059;-66
2024/02/01 08:50:33;;;;;;;40.72;7.18;;;;;;;;;;4971137;28;25084;-66
2024/02/01 08:53:00;;;;;;;39.38;7.28;;;;;;;;;;4970913;28;25073;-66
2024/02/01 08:55:27;;;;;;;35.72;7.22;;;;;;;;;;4966776;28;25085;-67
2024/02/01 08:57:54;;;;;;;34.42;6.47;;;;;;;;;;4967608;28;25135;-67
2024/02/01 09:00:25;;;;;;;42.30;6.35;;;;;;;;;;4971565;28;25184;-67
2024/02/01 09:05:41;;;;;;;37.55;6.93;;;;;;;;;;4975872;28;25085;-67
2024/02/01 09:08:08;;;;;;;33.20;6.70;;;;;;;;;;4976454;28;25076;-67
2024/02/01 09:10:35;;;;;;;35.83;7.03;;;;;;;;;;4973549;28;25078;-68
2024/02/01 09:13:01;;;;;;;41.30;7.75;;;;;;;;;;4968617;28;25091;-67
2024/02/01 09:15:30;;;;;;;33.72;7.35;;;;;;;;;;4971309;28;25063;-65
2024/02/01 09:17:57;;;;;;;31.77;6.70;;;;;;;;;;4973108;28;25149;-67
2024/02/01 09:20:25;;;;;;;38.28;6.97;;;;;;;;;;4968998;28;25146;-67
2024/02/01 09:22:56;;;;;;;42.33;7.15;;;;;;;;;;4971009;28;25074;-66
2024/02/01 09:25:23;;;;;;;39.83;8.00;;;;;;;;;;4969124;28;25042;-64
2024/02/01 09:27:50;;;;;;;37.92;7.82;;;;;;;;;;4966638;28;25072;-65
2024/02/01 09:30:19;;;;;;;44.03;8.60;;;;;;;;;;4970826;28;25052;-66
2024/02/01 09:32:49;;;;;;;44.40;7.95;;;;;;;;;;4987308;28;25065;-65
2024/02/01 09:35:15;;;;;;;38.03;7.45;;;;;;;;;;4973631;28;25069;-66
2024/02/01 09:37:42;;;;;;;41.83;7.13;;;;;;;;;;4969636;28;25158;-66
2024/02/01 09:40:10;;;;;;;51.50;8.85;;;;;;;;;;4966300;28;25080;-66
2024/02/01 09:42:37;;;;;;;48.13;7.40;;;;;;;;;;4965075;28;25109;-66
2024/02/01 09:45:04;;;;;;;40.47;7.45;;;;;;;;;;4971919;28;25085;-66
2024/02/01 09:47:41;;;;;;;46.50;7.55;;;;;;;;;;4970305;28;25061;-65
2024/02/01 09:50:08;;;;;;;48.53;8.30;;;;;;;;;;4966662;28;25051;-66
2024/02/01 09:52:39;;;;;;;40.53;8.85;;;;;;;;;;4965513;28;25081;-66
2024/02/01 09:55:07;;;;;;;46.88;8.18;;;;;;;;;;4972946;28;25081;-64
2024/02/01 09:57:40;;;;;;;37.75;7.13;;;;;;;;;;4982276;28;25069;-65
2024/02/01 10:00:10;;;;;;;42.03;6.47;;;;;;;;;;4965813;28;25059;-65
2024/02/01 10:02:36;;;;;;;46.70;7.78;;;;;;;;;;4969875;28;25050;-65
2024/02/01 10:05:02;;;;;;;42.90;7.07;;;;;;;;;;4984863;28;25094;-66
2024/02/01 10:07:30;;;;;;;39.03;8.48;;;;;;;;;;4966792;28;25069;-65
2024/02/01 10:09:56;;;;;;;41.05;7.72;;;;;;;;;;4948899;28;25136;-65
2024/02/01 10:12:25;;;;;;;44.63;7.43;;;;;;;;;;4967351;28;25072;-67
2024/02/01 10:14:51;;;;;;;39.85;7.75;;;;;;;;;;4964052;28;25122;-66
2024/02/01 10:17:17;;;;;;;45.40;7.55;;;;;;;;;;4965891;28;25058;-64
2024/02/01 10:19:49;;;;;;;48.10;8.07;;;;;;;;;;4969969;28;25109;-65
2024/02/01 10:22:15;;;;;;;44.78;9.25;;;;;;;;;;4968076;28;25128;-66
2024/02/01 10:24:45;;;;;;;39.90;7.40;;;;;;;;;;4968829;28;25066;-67
2024/02/01 10:27:21;;;;;;;42.53;8.25;;;;;;;;;;4967861;28;25063;-65
2024/02/01 10:29:47;;;;;;;28.90;6.65;;;;;;;;;;4967899;28;25078;-66
2024/02/01 10:32:14;;;;;;;49.75;7.85;;;;;;;;;;4971612;28;25091;-66
2024/02/01 10:34:53;;;;;;;33.95;7.00;;;;;;;;;;4967036;28;25125;-64
2024/02/01 10:37:19;;;;;;;32.15;6.57;;;;;;;;;;4965384;28;25080;-65
2024/02/01 10:40:06;;;;;;;38.00;7.60;;;;;;;;;;4971570;28;25082;-65
2024/02/01 10:42:33;;;;;;;38.97;6.63;;;;;;;;;;4973085;28;25099;-66
2024/02/01 10:45:03;;;;;;;38.10;6.75;;;;;;;;;;4972088;28;25127;-65
2024/02/01 10:47:30;;;;;;;45.08;8.32;;;;;;;;;;4963109;28;25103;-65
2024/02/01 10:49:57;;;;;;;44.50;6.75;;;;;;;;;;4972139;28;25071;-65
2024/02/01 10:52:26;;;;;;;46.95;8.43;;;;;;;;;;4970695;28;25081;-66
2024/02/01 10:54:53;;;;;;;40.53;7.80;;;;;;;;;;4970644;28;25053;-64
2024/02/01 10:57:20;;;;;;;49.33;8.30;;;;;;;;;;4968045;28;25107;-66
2024/02/01 10:59:48;;;;;;;32.35;7.03;;;;;;;;;;4959303;28;25078;-66
2024/02/01 11:02:15;;;;;;;44.58;7.28;;;;;;;;;;4947460;28;25068;-65
2024/02/01 11:04:45;;;;;;;39.45;7.03;;;;;;;;;;4958511;28;25061;-65
2024/02/01 11:07:18;;;;;;;44.42;7.15;;;;;;;;;;4963146;28;25086;-65
2024/02/01 11:09:44;;;;;;;41.05;6.60;;;;;;;;;;4965197;28;25145;-67
2024/02/01 11:12:13;;;;;;;37.83;7.88;;;;;;;;;;4962481;28;25056;-65
2024/02/01 11:14:40;;;;;;;39.20;7.15;;;;;;;;;;4966853;28;25136;-65
2024/02/01 11:17:09;;;;;;;43.15;8.23;;;;;;;;;;4967763;28;25058;-67
2024/02/01 11:19:37;;;;;;;33.78;6.40;;;;;;;;;;4967193;28;25060;-64
2024/02/01 11:22:07;;;;;;;43.70;7.00;;;;;;;;;;4971202;28;25083;-66
2024/02/01 11:24:35;;;;;;;31.30;6.00;;;;;;;;;;4968122;28;25070;-65
2024/02/01 11:27:10;;;;;;;42.38;6.35;;;;;;;;;;4956728;28;25063;-67
2024/02/01 11:29:37;;;;;;;32.08;6.53;;;;;;;;;;4981414;28;25069;-64
2024/02/01 11:32:05;;;;;;;38.72;6.63;;;;;;;;;;4983425;28;25062;-66
2024/02/01 11:34:32;;;;;;;38.60;7.07;;;;;;;;;;5009070;28;25087;-65
2024/02/01 11:36:59;;;;;;;34.35;6.78;;;;;;;;;;4981019;28;25104;-65
2024/02/01 11:39:26;;;;;;;28.77;5.47;;;;;;;;;;4982601;28;25069;-66
2024/02/01 11:41:53;;;;;;;40.42;7.43;;;;;;;;;;5002573;28;25052;-67
2024/02/01 11:44:20;;;;;;;33.00;7.03;;;;;;;;;;4988895;28;25084;-66
2024/02/01 11:46:48;;;;;;;27.70;7.30;;;;;;;;;;4989912;28;25080;-64
2024/02/01 11:49:19;;;;;;;33.03;5.93;;;;;;;;;;4986385;28;25061;-65
2024/02/01 11:51:45;;;;;;;35.17;6.65;;;;;;;;;;4990126;28;25062;-66
2024/02/01 11:54:11;;;;;;;35.67;7.13;;;;;;;;;;4982534;28;25100;-66
2024/02/01 11:56:38;;;;;;;38.80;6.65;;;;;;;;;;4983835;28;25067;-65
2024/02/01 11:59:04;;;;;;;35.25;6.68;;;;;;;;;;4983410;28;25070;-65
2024/02/01 12:01:30;;;;;;;33.83;6.57;;;;;;;;;;4976107;28;25092;-66
2024/02/01 12:03:58;;;;;;;37.75;5.82;;;;;;;;;;4969573;28;25041;-67
2024/02/01 12:06:24;;;;;;;31.23;5.45;;;;;;;;;;4973306;28;25066;-66
2024/02/01 12:08:51;;;;;;;24.05;6.10;;;;;;;;;;4969745;28;25079;-64
2024/02/01 12:11:23;;;;;;;31.95;5.72;;;;;;;;;;4972396;28;25067;-64
2024/02/01 12:13:49;;;;;;;28.80;6.35;;;;;;;;;;4973560;28;25075;-66
2024/02/01 12:16:25;;;;;;;23.00;5.05;;;;;;;;;;4966591;28;25060;-64
2024/02/01 12:18:52;;;;;;;36.00;6.72;;;;;;;;;;4970834;28;25134;-66
2024/02/01 12:21:26;;;;;;;36.50;7.38;;;;;;;;;;4950091;28;25066;-64
2024/02/01 12:23:53;;;;;;;30.10;7.30;;;;;;;;;;4965674;28;25069;-64
2024/02/01 12:26:19;;;;;;;39.65;6.68;;;;;;;;;;4964033;28;25135;-66
2024/02/01 12:28:45;;;;;;;24.23;5.43;;;;;;;;;;4968599;28;25053;-65
2024/02/01 12:31:11;;;;;;;33.38;7.65;;;;;;;;;;4969476;28;25079;-64
2024/02/01 12:33:39;;;;;;;23.80;5.32;;;;;;;;;;4969392;28;25136;-65
2024/02/01 12:36:06;;;;;;;34.35;7.15;;;;;;;;;;4965848;28;25177;-66
2024/02/01 12:38:56;;;;;;;29.55;6.53;;;;;;;;;;4965688;28;25074;-65
2024/02/01 12:41:21;;;;;;;39.33;6.32;;;;;;;;;;4969551;28;25055;-66
2024/02/01 12:43:51;;;;;;;31.13;6.30;;;;;;;;;;4966885;28;25054;-66
2024/02/01 12:46:21;;;;;;;34.20;6.40;;;;;;;;;;4951997;28;25080;-65
2024/02/01 12:48:47;;;;;;;40.75;6.78;;;;;;;;;;4985528;28;25093;-64
2024/02/01 12:51:13;;;;;;;35.15;6.65;;;;;;;;;;4968782;28;25058;-65
2024/02/01 12:53:39;;;;;;;29.42;7.10;;;;;;;;;;4966652;28;25065;-64
2024/02/01 12:56:05;;;;;;;35.95;6.28;;;;;;;;;;4966302;28;25064;-66
2024/02/01 12:58:39;;;;;;;31.15;5.70;;;;;;;;;;4969039;28;25106;-66
2024/02/01 13:01:05;;;;;;;26.27;6.18;;;;;;;;;;4961868;28;25072;-65
2024/02/01 13:03:32;;;;;;;24.80;5.68;;;;;;;;;;4968917;28;25073;-66
2024/02/01 13:05:58;;;;;;;25.20;5.75;;;;;;;;;;4959633;28;25048;-66
2024/02/01 13:08:24;;;;;;;44.00;6.50;;;;;;;;;;4965075;28;25162;-64
2024/02/01 13:10:50;;;;;;;30.55;6.45;;;;;;;;;;4969904;28;25083;-63
2024/02/01 13:13:16;;;;;;;31.65;6.38;;;;;;;;;;4969380;28;25062;-64
2024/02/01 13:15:46;;;;;;;34.13;7.25;;;;;;;;;;4967223;28;25080;-64
2024/02/01 13:18:13;;;;;;;34.45;6.00;;;;;;;;;;4967644;28;25067;-65
2024/02/01 13:20:39;;;;;;;28.83;5.90;;;;;;;;;;4968931;28;25047;-65
2024/02/01 13:23:09;;;;;;;29.27;6.18;;;;;;;;;;4968859;28;25063;-65
2024/02/01 13:25:35;;;;;;;25.80;6.13;;;;;;;;;;4968179;28;25071;-63
2024/02/01 13:28:01;;;;;;;30.73;6.35;;;;;;;;;;4968909;28;25121;-65
2024/02/01 13:30:27;;;;;;;36.33;6.15;;;;;;;;;;4968261;28;25111;-64
2024/02/01 13:32:53;;;;;;;31.40;5.60;;;;;;;;;;4968398;28;25162;-64
2024/02/01 13:35:19;;;;;;;34.97;6.88;;;;;;;;;;4966490;28;25075;-63
2024/02/01 13:37:48;;;;;;;31.27;6.22;;;;;;;;;;4969133;28;25051;-64
2024/02/01 13:40:14;;;;;;;34.45;6.40;;;;;;;;;;4969109;28;25118;-65
2024/02/01 13:42:43;;;;;;;23.02;5.93;;;;;;;;;;4969580;28;25067;-64
2024/02/01 13:45:10;;;;;;;33.42;6.63;;;;;;;;;;4969966;28;25140;-64
2024/02/01 13:47:36;;;;;;;33.47;6.70;;;;;;;;;;4968895;28;25069;-66
2024/02/01 13:50:03;;;;;;;30.52;6.68;;;;;;;;;;4968584;28;25101;-65
2024/02/01 13:52:29;;;;;;;36.22;7.22;;;;;;;;;;4968445;28;25100;-65
2024/02/01 13:54:54;;;;;;;25.25;6.03;;;;;;;;;;4969546;28;25098;-65
2024/02/01 13:57:20;;;;;;;30.65;6.95;;;;;;;;;;4977043;28;25066;-65
2024/02/01 13:59:46;;;;;;;26.20;5.55;;;;;;;;;;4983396;28;25057;-65
2024/02/01 14:02:13;;;;;;;32.03;6.40;;;;;;;;;;4982351;28;25059;-64
2024/02/01 14:04:39;;;;;;;34.85;6.60;;;;;;;;;;4974105;28;24955;-65
2024/02/01 14:07:06;;;;;;;21.55;5.60;;;;;;;;;;4979107;28;24956;-65
2024/02/01 14:09:33;;;;;;;30.27;6.00;;;;;;;;;;4970101;28;25137;-64
2024/02/01 14:12:02;;;;;;;25.80;5.20;;;;;;;;;;4969084;28;25071;-65
2024/02/01 14:14:31;;;;;;;25.73;5.60;;;;;;;;;;4970557;28;25137;-63
2024/02/01 14:16:57;;;;;;;32.85;6.50;;;;;;;;;;4967788;28;25143;-65
2024/02/01 14:19:23;;;;;;;26.33;5.90;;;;;;;;;;4967967;28;25068;-63
2024/02/01 14:21:50;;;;;;;27.80;7.28;;;;;;;;;;4966968;28;25054;-65
2024/02/01 14:24:16;;;;;;;32.08;6.15;;;;;;;;;;4970853;28;25047;-64
2024/02/01 14:26:42;;;;;;;29.73;5.45;;;;;;;;;;4970170;28;25079;-64
2024/02/01 14:29:08;;;;;;;39.83;5.95;;;;;;;;;;4968695;28;25099;-65
2024/02/01 14:31:34;;;;;;;22.02;5.28;;;;;;;;;;4972597;28;25051;-65
2024/02/01 14:34:00;;;;;;;26.00;6.88;;;;;;;;;;4965481;28;25073;-63
2024/02/01 14:36:28;;;;;;;36.95;6.40;;;;;;;;;;4973215;28;25110;-64
2024/02/01 14:38:54;;;;;;;25.95;5.38;;;;;;;;;;4972300;28;25050;-64
2024/02/01 14:41:20;;;;;;;30.92;5.63;;;;;;;;;;4963712;28;25062;-64
2024/02/01 14:43:46;;;;;;;30.90;6.63;;;;;;;;;;4964246;28;25074;-65
2024/02/01 14:46:13;;;;;;;29.48;6.40;;;;;;;;;;4969030;28;25106;-64
2024/02/01 14:48:39;;;;;;;31.55;5.90;;;;;;;;;;4970585;28;25056;-63
2024/02/01 14:51:05;;;;;;;34.20;5.85;;;;;;;;;;4975019;28;25060;-64
2024/02/01 14:53:32;;;;;;;29.73;7.80;;;;;;;;;;4967929;28;25065;-63
2024/02/01 14:55:59;;;;;;;33.80;5.70;;;;;;;;;;4968700;28;25097;-65
2024/02/01 14:58:25;;;;;;;35.33;6.75;;;;;;;;;;4967362;28;25077;-64
2024/02/01 15:00:51;;;;;;;27.90;5.47;;;;;;;;;;4968639;28;25069;-64
2024/02/01 15:03:17;;;;;;;30.95;5.70;;;;;;;;;;4967348;28;25057;-65
2024/02/01 15:05:44;;;;;;;27.15;5.35;;;;;;;;;;4970779;28;25148;-64
2024/02/01 15:08:10;;;;;;;28.83;5.70;;;;;;;;;;4963585;28;25073;-63
2024/02/01 15:10:36;;;;;;;26.95;6.47;;;;;;;;;;4967438;28;25106;-65
2024/02/01 15:13:02;;;;;;;24.50;5.35;;;;;;;;;;4985230;28;25167;-65
2024/02/01 15:15:33;;;;;;;23.63;5.55;;;;;;;;;;4968715;28;25138;-65
2024/02/01 15:17:59;;;;;;;30.90;5.65;;;;;;;;;;4970784;28;25067;-64